sensor_id;sensor_type;location;lat;lon;timestamp;pressure;altitude;pressure_sealevel;temperature;humidity
53340;BME280;46212;50.258;19.062;2023-04-15T00:01:49;97198.97;;;10.00;89.79
53340;BME280;46212;50.258;19.062;2023-04-15T00:04:14;97196.00;;;9.84;89.89
53340;BME280;46212;50.258;19.062;2023-04-15T00:06:39;97192.50;;;9.83;89.91
53340;BME280;46212;50.258;19.062;2023-04-15T00:09:05;97187.31;;;9.91;89.93
53340;BME280;46212;50.258;19.062;2023-04-15T00:11:31;97192.72;;;9.80;89.87
53340;BME280;46212;50.258;19.062;2023-04-15T00:13:56;97191.75;;;9.83;89.45
53340;BME280;46212;50.258;19.062;2023-04-15T00:16:22;97198.09;;;9.69;90.03
53340;BME280;46212;50.258;19.062;2023-04-15T00:18:48;97198.31;;;9.65;90.17
53340;BME280;46212;50.258;19.062;2023-04-15T00:21:13;97204.53;;;9.60;90.75
53340;BME280;46212;50.258;19.062;2023-04-15T00:23:38;97210.84;;;9.46;91.10
53340;BME280;46212;50.258;19.062;2023-04-15T00:26:04;97209.63;;;9.47;91.79
53340;BME280;46212;50.258;19.062;2023-04-15T00:28:29;97208.44;;;9.53;92.18
53340;BME280;46212;50.258;19.062;2023-04-15T00:30:55;97216.72;;;9.53;92.39
53340;BME280;46212;50.258;19.062;2023-04-15T00:33:20;97213.59;;;9.46;91.95
53340;BME280;46212;50.258;19.062;2023-04-15T00:35:46;97226.56;;;9.40;92.15
53340;BME280;46212;50.258;19.062;2023-04-15T00:38:11;97228.47;;;9.34;92.36
53340;BME280;46212;50.258;19.062;2023-04-15T00:40:37;97238.09;;;9.24;92.73
53340;BME280;46212;50.258;19.062;2023-04-15T00:43:02;97231.28;;;9.19;93.41
53340;BME280;46212;50.258;19.062;2023-04-15T00:45:29;97235.00;;;9.16;93.47
53340;BME280;46212;50.258;19.062;2023-04-15T00:47:54;97236.06;;;9.04;94.22
53340;BME280;46212;50.258;19.062;2023-04-15T00:50:20;97241.78;;;9.00;94.89
53340;BME280;46212;50.258;19.062;2023-04-15T00:52:45;97247.06;;;9.04;94.84
53340;BME280;46212;50.258;19.062;2023-04-15T00:55:11;97247.75;;;8.99;95.17
53340;BME280;46212;50.258;19.062;2023-04-15T00:57:37;97247.56;;;9.02;95.29
53340;BME280;46212;50.258;19.062;2023-04-15T01:00:04;97253.16;;;9.08;95.23
53340;BME280;46212;50.258;19.062;2023-04-15T01:02:32;97244.91;;;9.08;95.32
53340;BME280;46212;50.258;19.062;2023-04-15T01:04:58;97253.84;;;9.03;95.31
53340;BME280;46212;50.258;19.062;2023-04-15T01:07:24;97250.13;;;9.06;95.41
53340;BME280;46212;50.258;19.062;2023-04-15T01:09:49;97250.31;;;9.02;95.56
53340;BME280;46212;50.258;19.062;2023-04-15T01:12:15;97254.31;;;9.01;95.98
53340;BME280;46212;50.258;19.062;2023-04-15T01:14:41;97244.44;;;9.10;95.72
53340;BME280;46212;50.258;19.062;2023-04-15T01:17:06;97239.31;;;9.02;95.24
53340;BME280;46212;50.258;19.062;2023-04-15T01:19:32;97233.13;;;9.07;95.62
53340;BME280;46212;50.258;19.062;2023-04-15T01:21:58;97230.56;;;9.04;95.78
53340;BME280;46212;50.258;19.062;2023-04-15T01:24:25;97234.84;;;9.05;95.58
53340;BME280;46212;50.258;19.062;2023-04-15T01:26:52;97230.09;;;9.05;95.46
53340;BME280;46212;50.258;19.062;2023-04-15T01:29:18;97239.56;;;9.39;94.28
53340;BME280;46212;50.258;19.062;2023-04-15T01:31:54;97231.84;;;9.23;93.66
53340;BME280;46212;50.258;19.062;2023-04-15T01:34:20;97244.31;;;9.19;93.89
53340;BME280;46212;50.258;19.062;2023-04-15T01:36:45;97246.03;;;9.16;93.94
53340;BME280;46212;50.258;19.062;2023-04-15T01:39:11;97251.31;;;9.20;93.56
53340;BME280;46212;50.258;19.062;2023-04-15T01:41:37;97243.75;;;9.15;93.40
53340;BME280;46212;50.258;19.062;2023-04-15T01:44:03;97244.78;;;9.17;93.07
53340;BME280;46212;50.258;19.062;2023-04-15T01:46:29;97248.88;;;9.07;92.96
53340;BME280;46212;50.258;19.062;2023-04-15T01:48:54;97245.16;;;9.10;92.99
53340;BME280;46212;50.258;19.062;2023-04-15T01:51:20;97247.31;;;9.00;93.18
53340;BME280;46212;50.258;19.062;2023-04-15T01:53:46;97244.16;;;8.93;93.50
53340;BME280;46212;50.258;19.062;2023-04-15T01:56:11;97255.75;;;8.97;93.18
53340;BME280;46212;50.258;19.062;2023-04-15T01:58:37;97253.38;;;8.90;93.55
53340;BME280;46212;50.258;19.062;2023-04-15T02:01:02;97262.78;;;8.83;93.91
53340;BME280;46212;50.258;19.062;2023-04-15T02:03:29;97261.94;;;8.77;94.46
53340;BME280;46212;50.258;19.062;2023-04-15T02:05:54;97269.53;;;8.82;94.31
53340;BME280;46212;50.258;19.062;2023-04-15T02:08:20;97270.19;;;8.77;94.42
53340;BME280;46212;50.258;19.062;2023-04-15T02:10:45;97270.59;;;8.70;94.51
53340;BME280;46212;50.258;19.062;2023-04-15T02:13:11;97271.25;;;8.80;94.18
53340;BME280;46212;50.258;19.062;2023-04-15T02:15:36;97270.38;;;8.74;92.71
53340;BME280;46212;50.258;19.062;2023-04-15T02:18:01;97267.06;;;8.70;92.10
53340;BME280;46212;50.258;19.062;2023-04-15T02:20:27;97278.38;;;8.72;89.67
53340;BME280;46212;50.258;19.062;2023-04-15T02:22:54;97286.25;;;8.64;87.70
53340;BME280;46212;50.258;19.062;2023-04-15T02:25:20;97289.38;;;8.57;86.20
53340;BME280;46212;50.258;19.062;2023-04-15T02:27:46;97285.38;;;8.58;85.07
53340;BME280;46212;50.258;19.062;2023-04-15T02:30:11;97283.28;;;8.53;85.18
53340;BME280;46212;50.258;19.062;2023-04-15T02:32:38;97281.88;;;8.58;84.29
53340;BME280;46212;50.258;19.062;2023-04-15T02:35:05;97279.88;;;8.58;84.22
53340;BME280;46212;50.258;19.062;2023-04-15T02:37:32;97275.41;;;8.61;84.60
53340;BME280;46212;50.258;19.062;2023-04-15T02:40:01;97293.94;;;8.75;83.93
53340;BME280;46212;50.258;19.062;2023-04-15T02:42:26;97294.50;;;8.64;84.32
53340;BME280;46212;50.258;19.062;2023-04-15T02:44:54;97298.19;;;8.61;84.95
53340;BME280;46212;50.258;19.062;2023-04-15T02:47:20;97295.94;;;8.74;82.95
53340;BME280;46212;50.258;19.062;2023-04-15T02:49:45;97300.84;;;8.70;82.54
53340;BME280;46212;50.258;19.062;2023-04-15T02:52:11;97306.84;;;8.69;84.12
53340;BME280;46212;50.258;19.062;2023-04-15T02:54:36;97311.00;;;8.49;85.37
53340;BME280;46212;50.258;19.062;2023-04-15T02:57:02;97314.50;;;8.35;85.33
53340;BME280;46212;50.258;19.062;2023-04-15T02:59:30;97315.47;;;8.23;85.88
53340;BME280;46212;50.258;19.062;2023-04-15T03:05:05;97322.66;;;8.30;84.54
53340;BME280;46212;50.258;19.062;2023-04-15T03:07:31;97331.81;;;8.27;84.51
53340;BME280;46212;50.258;19.062;2023-04-15T03:09:56;97333.97;;;8.23;84.62
53340;BME280;46212;50.258;19.062;2023-04-15T03:12:22;97337.16;;;8.30;83.38
53340;BME280;46212;50.258;19.062;2023-04-15T03:14:47;97334.31;;;8.39;81.81
53340;BME280;46212;50.258;19.062;2023-04-15T03:17:13;97329.78;;;8.36;81.85
53340;BME280;46212;50.258;19.062;2023-04-15T03:19:38;97336.59;;;8.41;80.58
53340;BME280;46212;50.258;19.062;2023-04-15T03:22:04;97337.75;;;8.49;78.92
53340;BME280;46212;50.258;19.062;2023-04-15T03:24:29;97331.28;;;8.37;79.56
53340;BME280;46212;50.258;19.062;2023-04-15T03:26:55;97330.63;;;8.42;79.61
53340;BME280;46212;50.258;19.062;2023-04-15T03:29:22;97334.59;;;8.41;79.49
53340;BME280;46212;50.258;19.062;2023-04-15T03:31:47;97335.97;;;8.46;78.51
53340;BME280;46212;50.258;19.062;2023-04-15T03:34:13;97339.84;;;8.39;78.69
53340;BME280;46212;50.258;19.062;2023-04-15T03:36:38;97344.84;;;8.41;78.29
53340;BME280;46212;50.258;19.062;2023-04-15T03:39:04;97349.53;;;8.26;78.90
53340;BME280;46212;50.258;19.062;2023-04-15T03:41:29;97346.56;;;8.15;79.09
53340;BME280;46212;50.258;19.062;2023-04-15T03:43:55;97343.06;;;8.14;78.78
53340;BME280;46212;50.258;19.062;2023-04-15T03:46:21;97355.63;;;8.06;79.54
53340;BME280;46212;50.258;19.062;2023-04-15T03:48:46;97364.72;;;7.97;79.90
53340;BME280;46212;50.258;19.062;2023-04-15T03:51:12;97365.16;;;7.96;79.77
53340;BME280;46212;50.258;19.062;2023-04-15T03:53:37;97363.84;;;7.91;80.15
53340;BME280;46212;50.258;19.062;2023-04-15T03:56:03;97367.56;;;7.79;80.49
53340;BME280;46212;50.258;19.062;2023-04-15T03:58:28;97364.00;;;7.88;79.93
53340;BME280;46212;50.258;19.062;2023-04-15T04:00:54;97367.69;;;7.85;79.79
53340;BME280;46212;50.258;19.062;2023-04-15T04:03:19;97370.00;;;7.77;79.92
53340;BME280;46212;50.258;19.062;2023-04-15T04:05:45;97381.50;;;7.76;79.55
53340;BME280;46212;50.258;19.062;2023-04-15T04:08:11;97375.75;;;7.88;78.78
53340;BME280;46212;50.258;19.062;2023-04-15T04:10:38;97378.50;;;7.88;78.60
53340;BME280;46212;50.258;19.062;2023-04-15T04:13:03;97378.25;;;7.77;78.58
53340;BME280;46212;50.258;19.062;2023-04-15T04:15:29;97378.75;;;7.76;78.90
53340;BME280;46212;50.258;19.062;2023-04-15T04:17:54;97375.50;;;7.77;78.74
53340;BME280;46212;50.258;19.062;2023-04-15T04:20:20;97377.03;;;7.78;78.98
53340;BME280;46212;50.258;19.062;2023-04-15T04:22:45;97385.94;;;7.73;79.02
53340;BME280;46212;50.258;19.062;2023-04-15T04:25:11;97400.41;;;7.74;79.30
53340;BME280;46212;50.258;19.062;2023-04-15T04:27:36;97390.13;;;7.60;79.86
53340;BME280;46212;50.258;19.062;2023-04-15T04:30:02;97388.41;;;7.62;80.46
53340;BME280;46212;50.258;19.062;2023-04-15T04:32:28;97397.84;;;7.70;80.34
53340;BME280;46212;50.258;19.062;2023-04-15T04:34:53;97402.09;;;7.71;80.43
53340;BME280;46212;50.258;19.062;2023-04-15T04:37:19;97402.25;;;7.77;80.52
53340;BME280;46212;50.258;19.062;2023-04-15T04:39:44;97409.47;;;7.65;81.03
53340;BME280;46212;50.258;19.062;2023-04-15T04:42:09;97407.91;;;7.73;80.85
53340;BME280;46212;50.258;19.062;2023-04-15T04:44:35;97407.50;;;7.66;81.09
53340;BME280;46212;50.258;19.062;2023-04-15T04:47:00;97412.97;;;7.66;81.53
53340;BME280;46212;50.258;19.062;2023-04-15T04:49:26;97401.78;;;7.78;81.40
53340;BME280;46212;50.258;19.062;2023-04-15T04:51:51;97406.47;;;8.11;80.37
53340;BME280;46212;50.258;19.062;2023-04-15T04:54:16;97405.38;;;8.17;79.91
53340;BME280;46212;50.258;19.062;2023-04-15T04:56:42;97409.34;;;8.16;80.03
53340;BME280;46212;50.258;19.062;2023-04-15T04:59:07;97404.25;;;8.24;80.03
53340;BME280;46212;50.258;19.062;2023-04-15T05:01:33;97402.06;;;8.37;79.14
53340;BME280;46212;50.258;19.062;2023-04-15T05:03:59;97398.06;;;8.38;79.07
53340;BME280;46212;50.258;19.062;2023-04-15T05:06:24;97407.91;;;8.30;79.65
53340;BME280;46212;50.258;19.062;2023-04-15T05:08:50;97408.72;;;8.45;79.06
53340;BME280;46212;50.258;19.062;2023-04-15T05:11:16;97413.13;;;8.66;78.33
53340;BME280;46212;50.258;19.062;2023-04-15T05:13:41;97407.31;;;8.49;78.83
53340;BME280;46212;50.258;19.062;2023-04-15T05:16:07;97418.16;;;8.68;78.19
53340;BME280;46212;50.258;19.062;2023-04-15T05:18:32;97424.25;;;8.86;77.88
53340;BME280;46212;50.258;19.062;2023-04-15T05:20:58;97422.06;;;8.76;77.92
53340;BME280;46212;50.258;19.062;2023-04-15T05:23:24;97427.38;;;8.79;78.27
53340;BME280;46212;50.258;19.062;2023-04-15T05:25:49;97426.91;;;8.81;78.63
53340;BME280;46212;50.258;19.062;2023-04-15T05:28:15;97418.03;;;9.00;77.35
53340;BME280;46212;50.258;19.062;2023-04-15T05:30:40;97426.50;;;8.73;77.83
53340;BME280;46212;50.258;19.062;2023-04-15T05:33:06;97424.34;;;8.77;78.48
53340;BME280;46212;50.258;19.062;2023-04-15T05:35:31;97430.44;;;8.81;78.32
53340;BME280;46212;50.258;19.062;2023-04-15T05:37:57;97429.50;;;8.84;77.74
53340;BME280;46212;50.258;19.062;2023-04-15T05:40:22;97432.72;;;8.97;77.86
53340;BME280;46212;50.258;19.062;2023-04-15T05:42:48;97428.47;;;9.11;77.33
53340;BME280;46212;50.258;19.062;2023-04-15T05:45:13;97427.72;;;9.25;75.96
53340;BME280;46212;50.258;19.062;2023-04-15T05:47:39;97439.69;;;9.22;76.48
53340;BME280;46212;50.258;19.062;2023-04-15T05:50:04;97441.75;;;9.27;75.94
53340;BME280;46212;50.258;19.062;2023-04-15T05:52:31;97447.28;;;9.27;75.72
53340;BME280;46212;50.258;19.062;2023-04-15T05:54:56;97452.88;;;9.33;76.02
53340;BME280;46212;50.258;19.062;2023-04-15T05:57:22;97437.66;;;9.52;75.51
53340;BME280;46212;50.258;19.062;2023-04-15T05:59:47;97450.97;;;9.53;75.54
53340;BME280;46212;50.258;19.062;2023-04-15T06:02:13;97448.88;;;9.63;75.09
53340;BME280;46212;50.258;19.062;2023-04-15T06:04:38;97449.53;;;9.58;75.42
53340;BME280;46212;50.258;19.062;2023-04-15T06:07:04;97454.84;;;9.76;74.72
53340;BME280;46212;50.258;19.062;2023-04-15T06:09:30;97453.78;;;9.74;74.67
53340;BME280;46212;50.258;19.062;2023-04-15T06:11:55;97454.66;;;9.80;74.42
53340;BME280;46212;50.258;19.062;2023-04-15T06:14:22;97461.97;;;9.83;73.83
53340;BME280;46212;50.258;19.062;2023-04-15T06:16:47;97463.59;;;9.89;73.79
53340;BME280;46212;50.258;19.062;2023-04-15T06:19:12;97465.59;;;10.09;73.17
53340;BME280;46212;50.258;19.062;2023-04-15T06:21:38;97466.31;;;10.39;71.25
53340;BME280;46212;50.258;19.062;2023-04-15T06:24:04;97478.25;;;10.50;70.81
53340;BME280;46212;50.258;19.062;2023-04-15T06:26:29;97470.88;;;10.62;70.54
53340;BME280;46212;50.258;19.062;2023-04-15T06:28:55;97471.84;;;10.59;70.46
53340;BME280;46212;50.258;19.062;2023-04-15T06:31:21;97470.13;;;10.61;69.25
53340;BME280;46212;50.258;19.062;2023-04-15T06:33:47;97475.63;;;10.61;69.41
53340;BME280;46212;50.258;19.062;2023-04-15T06:36:12;97470.03;;;10.56;69.06
53340;BME280;46212;50.258;19.062;2023-04-15T06:38:38;97482.94;;;10.44;69.41
53340;BME280;46212;50.258;19.062;2023-04-15T06:41:03;97477.63;;;10.41;69.12
53340;BME280;46212;50.258;19.062;2023-04-15T06:43:29;97475.88;;;10.23;69.85
53340;BME280;46212;50.258;19.062;2023-04-15T06:45:55;97479.72;;;10.46;72.01
53340;BME280;46212;50.258;19.062;2023-04-15T06:48:21;97485.22;;;10.66;69.18
53340;BME280;46212;50.258;19.062;2023-04-15T06:50:47;97483.50;;;10.69;69.14
53340;BME280;46212;50.258;19.062;2023-04-15T06:53:13;97485.06;;;10.75;68.14
53340;BME280;46212;50.258;19.062;2023-04-15T06:55:38;97485.84;;;10.76;68.44
53340;BME280;46212;50.258;19.062;2023-04-15T06:58:04;97490.34;;;10.93;67.71
53340;BME280;46212;50.258;19.062;2023-04-15T07:00:30;97492.31;;;10.93;66.89
53340;BME280;46212;50.258;19.062;2023-04-15T07:02:57;97502.69;;;10.78;67.83
53340;BME280;46212;50.258;19.062;2023-04-15T07:05:23;97499.50;;;10.85;67.73
53340;BME280;46212;50.258;19.062;2023-04-15T07:07:49;97501.25;;;10.62;66.94
53340;BME280;46212;50.258;19.062;2023-04-15T07:10:15;97508.63;;;10.71;67.42
53340;BME280;46212;50.258;19.062;2023-04-15T07:12:41;97503.59;;;10.89;66.46
53340;BME280;46212;50.258;19.062;2023-04-15T07:15:06;97507.66;;;10.94;65.66
53340;BME280;46212;50.258;19.062;2023-04-15T07:17:32;97516.00;;;10.99;65.80
53340;BME280;46212;50.258;19.062;2023-04-15T07:19:57;97513.97;;;11.20;65.56
53340;BME280;46212;50.258;19.062;2023-04-15T07:22:23;97510.63;;;11.36;65.15
53340;BME280;46212;50.258;19.062;2023-04-15T07:24:48;97513.44;;;11.67;63.73
53340;BME280;46212;50.258;19.062;2023-04-15T07:27:14;97515.03;;;11.74;63.08
53340;BME280;46212;50.258;19.062;2023-04-15T07:29:39;97512.97;;;11.69;63.08
53340;BME280;46212;50.258;19.062;2023-04-15T07:32:05;97506.59;;;11.57;64.08
53340;BME280;46212;50.258;19.062;2023-04-15T07:34:31;97518.72;;;11.65;63.97
53340;BME280;46212;50.258;19.062;2023-04-15T07:36:56;97511.38;;;11.62;62.21
53340;BME280;46212;50.258;19.062;2023-04-15T07:39:22;97517.09;;;11.53;61.98
53340;BME280;46212;50.258;19.062;2023-04-15T07:41:47;97519.25;;;11.44;62.95
53340;BME280;46212;50.258;19.062;2023-04-15T07:44:13;97512.09;;;11.57;63.20
53340;BME280;46212;50.258;19.062;2023-04-15T07:46:39;97518.81;;;11.77;63.50
53340;BME280;46212;50.258;19.062;2023-04-15T07:49:04;97513.19;;;11.91;60.22
53340;BME280;46212;50.258;19.062;2023-04-15T07:51:30;97513.47;;;11.99;60.36
53340;BME280;46212;50.258;19.062;2023-04-15T07:53:56;97513.00;;;12.00;60.52
53340;BME280;46212;50.258;19.062;2023-04-15T07:56:22;97508.69;;;11.99;60.51
53340;BME280;46212;50.258;19.062;2023-04-15T07:58:47;97508.59;;;12.19;62.08
53340;BME280;46212;50.258;19.062;2023-04-15T08:01:13;97520.28;;;12.35;58.54
53340;BME280;46212;50.258;19.062;2023-04-15T08:03:38;97505.91;;;12.31;57.69
53340;BME280;46212;50.258;19.062;2023-04-15T08:06:04;97502.19;;;12.39;57.78
53340;BME280;46212;50.258;19.062;2023-04-15T08:08:29;97506.75;;;12.48;57.91
53340;BME280;46212;50.258;19.062;2023-04-15T08:10:55;97503.03;;;12.56;57.55
53340;BME280;46212;50.258;19.062;2023-04-15T08:13:21;97498.03;;;12.60;55.62
53340;BME280;46212;50.258;19.062;2023-04-15T08:16:17;97498.00;;;12.55;55.29
53340;BME280;46212;50.258;19.062;2023-04-15T08:18:43;97505.59;;;12.65;55.61
53340;BME280;46212;50.258;19.062;2023-04-15T08:21:09;97505.63;;;12.71;55.69
53340;BME280;46212;50.258;19.062;2023-04-15T08:23:35;97506.88;;;12.70;55.35
53340;BME280;46212;50.258;19.062;2023-04-15T08:26:01;97499.88;;;12.74;56.24
53340;BME280;46212;50.258;19.062;2023-04-15T08:28:26;97500.69;;;12.97;55.82
53340;BME280;46212;50.258;19.062;2023-04-15T08:30:52;97502.31;;;13.15;54.73
53340;BME280;46212;50.258;19.062;2023-04-15T08:33:17;97501.53;;;13.14;55.02
53340;BME280;46212;50.258;19.062;2023-04-15T08:35:43;97504.31;;;13.20;54.85
53340;BME280;46212;50.258;19.062;2023-04-15T08:38:08;97497.28;;;13.19;54.20
53340;BME280;46212;50.258;19.062;2023-04-15T08:40:44;97501.09;;;13.32;54.16
53340;BME280;46212;50.258;19.062;2023-04-15T08:43:13;97500.59;;;13.28;53.46
53340;BME280;46212;50.258;19.062;2023-04-15T08:45:40;97511.44;;;13.43;53.05
53340;BME280;46212;50.258;19.062;2023-04-15T08:48:06;97497.09;;;13.50;53.40
53340;BME280;46212;50.258;19.062;2023-04-15T08:50:34;97506.94;;;13.62;52.75
53340;BME280;46212;50.258;19.062;2023-04-15T08:53:00;97506.19;;;13.62;52.97
53340;BME280;46212;50.258;19.062;2023-04-15T08:55:32;97508.94;;;13.67;53.15
53340;BME280;46212;50.258;19.062;2023-04-15T08:58:01;97504.19;;;13.84;52.00
53340;BME280;46212;50.258;19.062;2023-04-15T09:00:27;97504.69;;;14.00;50.44
53340;BME280;46212;50.258;19.062;2023-04-15T09:02:54;97501.41;;;14.23;51.55
53340;BME280;46212;50.258;19.062;2023-04-15T09:05:20;97505.91;;;14.43;50.26
53340;BME280;46212;50.258;19.062;2023-04-15T09:07:47;97502.81;;;14.69;48.52
53340;BME280;46212;50.258;19.062;2023-04-15T09:10:12;97506.84;;;14.79;47.08
53340;BME280;46212;50.258;19.062;2023-04-15T09:12:38;97503.06;;;14.76;46.73
53340;BME280;46212;50.258;19.062;2023-04-15T09:15:04;97509.56;;;14.96;45.69
53340;BME280;46212;50.258;19.062;2023-04-15T09:17:31;97505.00;;;14.98;43.58
53340;BME280;46212;50.258;19.062;2023-04-15T09:20:14;97510.06;;;14.94;43.15
53340;BME280;46212;50.258;19.062;2023-04-15T09:22:40;97503.72;;;15.05;43.68
53340;BME280;46212;50.258;19.062;2023-04-15T09:28:12;97508.78;;;15.01;43.43
53340;BME280;46212;50.258;19.062;2023-04-15T09:30:38;97502.72;;;15.02;45.42
53340;BME280;46212;50.258;19.062;2023-04-15T09:33:07;97504.69;;;15.07;45.65
53340;BME280;46212;50.258;19.062;2023-04-15T09:35:35;97505.44;;;15.13;46.04
53340;BME280;46212;50.258;19.062;2023-04-15T09:38:06;97508.16;;;15.24;45.20
53340;BME280;46212;50.258;19.062;2023-04-15T09:40:39;97510.69;;;15.28;46.12
53340;BME280;46212;50.258;19.062;2023-04-15T09:43:07;97510.56;;;15.44;45.39
53340;BME280;46212;50.258;19.062;2023-04-15T09:45:33;97508.25;;;15.60;45.19
53340;BME280;46212;50.258;19.062;2023-04-15T09:48:20;97518.06;;;15.66;43.89
53340;BME280;46212;50.258;19.062;2023-04-15T09:50:49;97505.25;;;15.87;44.68
53340;BME280;46212;50.258;19.062;2023-04-15T09:53:19;97506.03;;;15.88;41.69
53340;BME280;46212;50.258;19.062;2023-04-15T09:55:48;97515.19;;;15.77;40.91
53340;BME280;46212;50.258;19.062;2023-04-15T10:00:46;97500.44;;;15.88;42.12
53340;BME280;46212;50.258;19.062;2023-04-15T10:03:18;97505.25;;;16.17;41.82
53340;BME280;46212;50.258;19.062;2023-04-15T10:05:46;97512.69;;;16.33;41.57
53340;BME280;46212;50.258;19.062;2023-04-15T10:08:12;97508.00;;;16.47;42.67
53340;BME280;46212;50.258;19.062;2023-04-15T10:10:38;97507.13;;;16.63;43.04
53340;BME280;46212;50.258;19.062;2023-04-15T10:13:04;97508.53;;;16.94;41.71
53340;BME280;46212;50.258;19.062;2023-04-15T10:15:31;97506.97;;;16.98;41.58
53340;BME280;46212;50.258;19.062;2023-04-15T10:17:59;97507.09;;;16.87;40.63
53340;BME280;46212;50.258;19.062;2023-04-15T10:20:25;97508.31;;;16.92;41.69
53340;BME280;46212;50.258;19.062;2023-04-15T10:22:53;97517.59;;;17.00;40.88
53340;BME280;46212;50.258;19.062;2023-04-15T10:25:20;97511.31;;;16.94;40.08
53340;BME280;46212;50.258;19.062;2023-04-15T10:27:45;97510.88;;;16.90;39.15
53340;BME280;46212;50.258;19.062;2023-04-15T10:30:12;97503.56;;;16.87;39.92
53340;BME280;46212;50.258;19.062;2023-04-15T10:32:39;97499.47;;;16.88;39.09
53340;BME280;46212;50.258;19.062;2023-04-15T10:35:05;97502.75;;;16.92;40.19
53340;BME280;46212;50.258;19.062;2023-04-15T10:37:37;97499.38;;;16.99;40.63
53340;BME280;46212;50.258;19.062;2023-04-15T10:40:25;97502.84;;;17.05;40.38
53340;BME280;46212;50.258;19.062;2023-04-15T10:42:53;97500.84;;;17.00;40.43
53340;BME280;46212;50.258;19.062;2023-04-15T10:45:19;97496.41;;;16.91;39.46
53340;BME280;46212;50.258;19.062;2023-04-15T10:47:45;97498.03;;;17.06;40.03
53340;BME280;46212;50.258;19.062;2023-04-15T10:50:10;97500.13;;;16.99;39.91
53340;BME280;46212;50.258;19.062;2023-04-15T10:52:39;97497.75;;;16.85;39.78
53340;BME280;46212;50.258;19.062;2023-04-15T10:55:13;97496.56;;;16.80;40.67
53340;BME280;46212;50.258;19.062;2023-04-15T10:57:43;97501.88;;;16.78;41.70
53340;BME280;46212;50.258;19.062;2023-04-15T11:02:51;97492.72;;;16.83;40.97
53340;BME280;46212;50.258;19.062;2023-04-15T11:05:18;97511.41;;;16.88;42.47
53340;BME280;46212;50.258;19.062;2023-04-15T11:07:55;97493.16;;;17.06;42.82
53340;BME280;46212;50.258;19.062;2023-04-15T11:12:59;97507.06;;;17.30;42.37
53340;BME280;46212;50.258;19.062;2023-04-15T11:15:32;97498.84;;;17.38;41.26
53340;BME280;46212;50.258;19.062;2023-04-15T11:20:24;97507.53;;;17.34;40.65
53340;BME280;46212;50.258;19.062;2023-04-15T11:22:52;97505.81;;;17.31;40.95
53340;BME280;46212;50.258;19.062;2023-04-15T11:25:24;97500.66;;;17.35;40.84
53340;BME280;46212;50.258;19.062;2023-04-15T11:27:51;97508.88;;;17.46;41.40
53340;BME280;46212;50.258;19.062;2023-04-15T11:30:19;97503.84;;;17.64;41.15
53340;BME280;46212;50.258;19.062;2023-04-15T11:32:46;97503.69;;;17.75;40.68
53340;BME280;46212;50.258;19.062;2023-04-15T11:35:12;97506.63;;;17.64;40.36
53340;BME280;46212;50.258;19.062;2023-04-15T11:37:37;97509.88;;;17.68;40.46
53340;BME280;46212;50.258;19.062;2023-04-15T11:40:03;97512.28;;;17.39;41.04
53340;BME280;46212;50.258;19.062;2023-04-15T11:42:29;97509.19;;;17.24;41.46
53340;BME280;46212;50.258;19.062;2023-04-15T11:45:13;97512.88;;;17.14;41.16
53340;BME280;46212;50.258;19.062;2023-04-15T11:47:41;97507.38;;;17.08;41.83
53340;BME280;46212;50.258;19.062;2023-04-15T11:50:17;97518.66;;;17.16;41.63
53340;BME280;46212;50.258;19.062;2023-04-15T11:55:22;97517.44;;;16.92;40.59
53340;BME280;46212;50.258;19.062;2023-04-15T11:57:49;97516.28;;;16.82;41.85
53340;BME280;46212;50.258;19.062;2023-04-15T12:00:15;97525.34;;;16.88;41.19
53340;BME280;46212;50.258;19.062;2023-04-15T12:02:42;97518.75;;;17.10;41.50
53340;BME280;46212;50.258;19.062;2023-04-15T12:05:08;97506.78;;;17.15;40.81
53340;BME280;46212;50.258;19.062;2023-04-15T12:07:56;97510.53;;;17.18;40.64
53340;BME280;46212;50.258;19.062;2023-04-15T12:10:23;97517.59;;;17.00;40.89
53340;BME280;46212;50.258;19.062;2023-04-15T12:12:51;97521.41;;;16.78;40.92
53340;BME280;46212;50.258;19.062;2023-04-15T12:15:21;97520.84;;;16.61;41.94
53340;BME280;46212;50.258;19.062;2023-04-15T12:17:47;97526.94;;;16.54;42.70
53340;BME280;46212;50.258;19.062;2023-04-15T12:20:12;97530.75;;;16.57;42.81
53340;BME280;46212;50.258;19.062;2023-04-15T12:22:38;97533.78;;;16.53;43.27
53340;BME280;46212;50.258;19.062;2023-04-15T12:25:03;97531.16;;;16.66;43.83
53340;BME280;46212;50.258;19.062;2023-04-15T12:27:30;97525.53;;;16.72;43.21
53340;BME280;46212;50.258;19.062;2023-04-15T12:30:03;97534.56;;;16.78;43.19
53340;BME280;46212;50.258;19.062;2023-04-15T12:32:29;97530.16;;;17.31;42.22
53340;BME280;46212;50.258;19.062;2023-04-15T12:34:59;97524.00;;;18.20;40.85
53340;BME280;46212;50.258;19.062;2023-04-15T12:37:24;97524.97;;;19.46;38.53
53340;BME280;46212;50.258;19.062;2023-04-15T12:39:50;97525.06;;;20.99;35.06
53340;BME280;46212;50.258;19.062;2023-04-15T12:42:17;97520.50;;;23.42;31.00
53340;BME280;46212;50.258;19.062;2023-04-15T12:44:42;97529.78;;;24.07;29.55
53340;BME280;46212;50.258;19.062;2023-04-15T12:47:09;97523.97;;;26.45;26.59
53340;BME280;46212;50.258;19.062;2023-04-15T12:49:40;97511.63;;;27.82;24.01
53340;BME280;46212;50.258;19.062;2023-04-15T12:52:06;97519.97;;;29.77;21.83
53340;BME280;46212;50.258;19.062;2023-04-15T12:54:31;97515.81;;;30.57;20.60
53340;BME280;46212;50.258;19.062;2023-04-15T12:56:58;97526.66;;;30.37;20.84
53340;BME280;46212;50.258;19.062;2023-04-15T12:59:26;97528.81;;;25.37;23.41
53340;BME280;46212;50.258;19.062;2023-04-15T13:01:54;97518.53;;;23.99;25.69
53340;BME280;46212;50.258;19.062;2023-04-15T13:04:20;97521.59;;;22.76;28.13
53340;BME280;46212;50.258;19.062;2023-04-15T13:06:46;97523.88;;;25.72;25.91
53340;BME280;46212;50.258;19.062;2023-04-15T13:09:11;97519.31;;;26.76;24.07
53340;BME280;46212;50.258;19.062;2023-04-15T13:11:37;97520.50;;;24.88;26.09